createdAt,value
2023-08-14T00:02:04.589Z,20.85
2023-08-14T00:04:32.602Z,20.75
2023-08-14T00:07:00.499Z,20.83
2023-08-14T00:09:28.615Z,20.74
2023-08-14T00:11:56.630Z,20.68
2023-08-14T00:14:26.032Z,20.62
2023-08-14T00:16:54.022Z,20.51
2023-08-14T00:19:21.974Z,20.51
2023-08-14T00:21:50.445Z,20.48
2023-08-14T00:24:18.469Z,20.49
2023-08-14T00:26:46.342Z,20.41
2023-08-14T00:29:14.306Z,20.38
2023-08-14T00:31:43.741Z,20.40
2023-08-14T00:34:11.706Z,20.36
2023-08-14T00:36:39.720Z,20.34
2023-08-14T00:39:08.021Z,20.34
2023-08-14T00:41:36.023Z,20.35
2023-08-14T00:44:04.154Z,20.34
2023-08-14T00:46:32.839Z,20.37
2023-08-14T00:49:02.298Z,20.45
2023-08-14T00:51:30.335Z,20.44
2023-08-14T00:53:58.420Z,20.37
2023-08-14T00:56:29.261Z,20.39
2023-08-14T00:58:57.776Z,20.30
2023-08-14T01:01:26.102Z,20.29
2023-08-14T01:03:54.108Z,20.30
2023-08-14T01:06:23.703Z,20.32
2023-08-14T01:08:51.797Z,20.31
2023-08-14T01:11:24.938Z,20.34
2023-08-14T01:13:59.082Z,20.31
2023-08-14T01:16:35.292Z,20.30
2023-08-14T01:19:06.082Z,20.25
2023-08-14T01:21:42.871Z,20.26
2023-08-14T01:24:20.219Z,20.23
2023-08-14T01:26:49.858Z,20.19
2023-08-14T01:29:18.144Z,20.15
2023-08-14T01:31:46.123Z,20.17
2023-08-14T01:34:14.500Z,20.25
2023-08-14T01:36:46.482Z,20.28
2023-08-14T01:39:17.676Z,20.17
2023-08-14T01:41:52.870Z,20.08
2023-08-14T01:44:23.422Z,20.09
2023-08-14T01:46:53.014Z,20.06
2023-08-14T01:49:21.202Z,20.02
2023-08-14T01:51:49.896Z,20.06
2023-08-14T01:54:17.849Z,20.01
2023-08-14T01:56:46.384Z,19.99
2023-08-14T01:59:15.716Z,19.86
2023-08-14T02:01:43.661Z,19.80
2023-08-14T02:04:11.755Z,19.76
2023-08-14T02:06:39.733Z,19.77
2023-08-14T02:09:07.691Z,19.73
2023-08-14T02:11:36.753Z,19.76
2023-08-14T02:14:04.923Z,19.70
2023-08-14T02:16:37.807Z,19.69
2023-08-14T02:19:06.061Z,19.65
2023-08-14T02:21:34.117Z,19.62
2023-08-14T02:24:02.095Z,19.61
2023-08-14T02:26:31.982Z,19.57
2023-08-14T02:28:59.984Z,19.52
2023-08-14T02:31:28.065Z,19.55
2023-08-14T02:33:59.638Z,19.57
2023-08-14T02:36:27.978Z,19.52
2023-08-14T02:38:56.263Z,19.46
2023-08-14T02:41:24.502Z,19.47
2023-08-14T02:43:52.577Z,19.47
2023-08-14T02:46:20.551Z,19.52
2023-08-14T02:48:48.508Z,19.50
2023-08-14T02:51:18.055Z,19.61
2023-08-14T02:53:45.969Z,19.56
2023-08-14T02:56:13.920Z,19.53
2023-08-14T02:58:42.059Z,19.56
2023-08-14T03:01:10.097Z,19.51
2023-08-14T03:03:38.209Z,19.41
2023-08-14T03:06:06.274Z,19.33
2023-08-14T03:08:35.667Z,19.40
2023-08-14T03:11:03.813Z,19.48
2023-08-14T03:13:31.790Z,19.47
2023-08-14T03:15:59.751Z,19.42
2023-08-14T03:18:27.731Z,19.34
2023-08-14T03:20:55.648Z,19.32
2023-08-14T03:23:23.637Z,19.31
2023-08-14T03:25:52.952Z,19.28
2023-08-14T03:28:20.997Z,19.52
2023-08-14T03:30:50.841Z,19.55
2023-08-14T03:33:19.365Z,19.47
2023-08-14T03:35:47.437Z,19.32
2023-08-14T03:38:16.608Z,19.22
2023-08-14T03:40:45.229Z,19.15
2023-08-14T03:43:14.605Z,19.15
2023-08-14T03:45:42.609Z,19.09
2023-08-14T03:48:10.672Z,19.01
2023-08-14T03:50:38.597Z,18.97
2023-08-14T03:53:06.521Z,18.95
2023-08-14T03:55:34.690Z,18.97
2023-08-14T03:58:02.913Z,18.88
2023-08-14T04:00:32.370Z,18.85
2023-08-14T04:03:00.499Z,18.81
2023-08-14T04:05:29.312Z,18.82
2023-08-14T04:07:57.246Z,18.88
2023-08-14T04:10:25.915Z,18.91
2023-08-14T04:12:54.556Z,18.92
2023-08-14T04:15:24.217Z,19.00
2023-08-14T04:17:53.559Z,18.97
2023-08-14T04:20:21.612Z,19.00
2023-08-14T04:22:49.552Z,19.16
2023-08-14T04:25:19.765Z,19.18
2023-08-14T04:27:48.097Z,19.21
2023-08-14T04:30:16.122Z,19.11
2023-08-14T04:32:44.213Z,19.08
2023-08-14T04:35:13.758Z,19.13
2023-08-14T04:37:42.391Z,19.15
2023-08-14T04:40:11.719Z,19.16
2023-08-14T04:42:41.323Z,19.26
2023-08-14T04:45:10.508Z,19.36
2023-08-14T04:47:38.800Z,19.45
2023-08-14T04:50:08.334Z,19.53
2023-08-14T04:52:37.855Z,19.71
2023-08-14T04:55:07.210Z,19.73
2023-08-14T04:57:37.139Z,19.75
2023-08-14T05:00:09.489Z,19.78
2023-08-14T05:02:38.190Z,19.85
2023-08-14T05:05:06.581Z,19.94
2023-08-14T05:07:34.776Z,19.89
2023-08-14T05:10:04.877Z,20.02
2023-08-14T05:12:33.145Z,20.10
2023-08-14T05:15:01.172Z,20.20
2023-08-14T05:17:29.419Z,20.27
2023-08-14T05:19:58.707Z,20.42
2023-08-14T05:22:26.732Z,20.40
2023-08-14T05:24:54.757Z,20.70
2023-08-14T05:27:23.981Z,20.75
2023-08-14T05:29:51.906Z,20.82
2023-08-14T05:32:20.149Z,20.77
2023-08-14T05:34:48.364Z,20.71
2023-08-14T05:37:16.258Z,20.63
2023-08-14T05:39:44.138Z,20.94
2023-08-14T05:42:12.090Z,20.75
2023-08-14T05:44:41.536Z,20.89
2023-08-14T05:47:09.479Z,20.74
2023-08-14T05:49:37.476Z,20.77
2023-08-14T05:52:05.871Z,20.79
2023-08-14T05:54:33.896Z,20.80
2023-08-14T05:57:01.826Z,21.11
2023-08-14T05:59:29.794Z,20.88
2023-08-14T06:02:01.089Z,20.89
2023-08-14T06:04:30.703Z,21.12
2023-08-14T06:06:58.659Z,21.15
2023-08-14T06:09:26.706Z,21.47
2023-08-14T06:11:54.654Z,21.54
2023-08-14T06:14:23.997Z,21.46
2023-08-14T06:16:51.926Z,21.52
2023-08-14T06:19:21.270Z,21.62
2023-08-14T06:21:49.213Z,21.61
2023-08-14T06:24:17.471Z,21.67
2023-08-14T06:26:45.547Z,21.82
2023-08-14T06:29:13.571Z,22.15
2023-08-14T06:31:41.501Z,22.17
2023-08-14T06:34:09.469Z,22.34
2023-08-14T06:36:39.214Z,22.26
2023-08-14T06:39:07.469Z,22.39
2023-08-14T06:41:35.473Z,22.37
2023-08-14T06:44:09.699Z,22.55
2023-08-14T06:46:37.755Z,22.92
2023-08-14T06:49:06.134Z,23.15
2023-08-14T06:51:34.373Z,23.05
2023-08-14T06:54:03.654Z,23.01
2023-08-14T06:56:31.696Z,22.94
2023-08-14T06:58:59.731Z,23.07
2023-08-14T07:01:27.597Z,23.12
2023-08-14T07:03:55.710Z,23.29
2023-08-14T07:06:23.765Z,23.64
2023-08-14T07:08:51.675Z,24.08
2023-08-14T07:11:20.937Z,24.84
2023-08-14T07:13:49.114Z,25.78
2023-08-14T07:16:17.266Z,26.35
2023-08-14T07:18:45.331Z,26.80
2023-08-14T07:21:13.268Z,26.95
2023-08-14T07:23:41.195Z,26.74
2023-08-14T07:26:13.454Z,26.65
2023-08-14T07:28:43.126Z,26.93
2023-08-14T07:31:11.180Z,27.42
2023-08-14T07:33:39.170Z,27.56
2023-08-14T07:36:07.134Z,27.63
2023-08-14T07:38:35.016Z,27.68
2023-08-14T07:41:02.970Z,27.62
2023-08-14T07:43:30.925Z,28.63
2023-08-14T07:46:00.185Z,30.15
2023-08-14T07:48:28.279Z,31.28
2023-08-14T07:50:56.470Z,32.58
2023-08-14T07:53:24.475Z,34.22
2023-08-14T07:55:52.468Z,35.59
2023-08-14T07:58:20.432Z,35.12
2023-08-14T08:00:48.370Z,34.47
2023-08-14T08:03:17.743Z,35.32
2023-08-14T08:05:45.690Z,36.02
2023-08-14T08:08:13.639Z,36.53
2023-08-14T08:10:41.606Z,37.56
2023-08-14T08:13:10.348Z,36.64
2023-08-14T08:15:38.409Z,36.05
2023-08-14T08:18:06.624Z,36.79
2023-08-14T08:20:36.013Z,37.38
2023-08-14T08:23:05.074Z,38.06
2023-08-14T08:25:33.037Z,38.34
2023-08-14T08:28:00.964Z,36.20
2023-08-14T08:30:28.899Z,36.58
2023-08-14T08:33:03.142Z,35.59
2023-08-14T08:35:31.835Z,37.25
2023-08-14T08:38:01.009Z,37.73
2023-08-14T08:40:29.287Z,38.04
2023-08-14T08:42:58.185Z,38.76
2023-08-14T08:45:33.326Z,37.06
2023-08-14T08:48:02.465Z,34.74
2023-08-14T08:50:31.119Z,34.68
2023-08-14T08:52:59.291Z,34.57
2023-08-14T08:55:29.917Z,34.26
2023-08-14T08:57:59.472Z,36.15
2023-08-14T09:00:27.450Z,35.43
2023-08-14T09:02:55.566Z,35.21
2023-08-14T09:05:23.575Z,35.68
2023-08-14T09:07:51.810Z,37.50
2023-08-14T09:10:19.857Z,38.87
2023-08-14T09:12:49.242Z,38.65
2023-08-14T09:15:17.254Z,37.64
2023-08-14T09:17:45.583Z,36.93
2023-08-14T09:20:28.249Z,35.93
2023-08-14T09:22:58.744Z,35.55
2023-08-14T09:25:27.615Z,35.68
2023-08-14T09:27:57.548Z,35.35
2023-08-14T09:30:26.423Z,36.88
2023-08-14T09:32:55.855Z,37.96
2023-08-14T09:35:23.890Z,35.95
2023-08-14T09:37:51.858Z,36.68
2023-08-14T09:40:22.253Z,35.94
2023-08-14T09:42:51.486Z,34.15
2023-08-14T09:45:24.629Z,34.62
2023-08-14T09:47:53.359Z,36.18
2023-08-14T09:50:26.902Z,36.39
2023-08-14T09:53:00.253Z,35.86
2023-08-14T09:55:29.319Z,35.70
2023-08-14T09:57:57.765Z,36.81
2023-08-14T10:00:29.383Z,36.37
2023-08-14T10:02:59.708Z,36.01
2023-08-14T10:05:29.498Z,36.37
2023-08-14T10:07:58.038Z,36.36
2023-08-14T10:10:27.316Z,36.63
2023-08-14T10:12:59.618Z,36.46
2023-08-14T10:15:31.743Z,37.78
2023-08-14T10:18:02.247Z,37.24
2023-08-14T10:20:35.697Z,37.28
2023-08-14T10:23:04.389Z,37.71
2023-08-14T10:25:32.724Z,38.38
2023-08-14T10:28:01.064Z,37.87
2023-08-14T10:30:30.831Z,37.67
2023-08-14T10:32:59.131Z,38.14
2023-08-14T10:35:27.147Z,36.33
2023-08-14T10:38:08.469Z,35.67
2023-08-14T10:40:38.120Z,35.77
2023-08-14T10:43:06.935Z,36.08
2023-08-14T10:45:36.341Z,35.56
2023-08-14T10:48:10.657Z,36.64
2023-08-14T10:50:38.786Z,35.85
2023-08-14T10:53:07.874Z,36.34
2023-08-14T10:55:39.875Z,36.93
2023-08-14T10:58:51.868Z,37.45
2023-08-14T11:01:21.302Z,37.60
2023-08-14T11:04:05.809Z,36.36
2023-08-14T11:07:10.026Z,36.12
2023-08-14T11:09:39.802Z,35.80
2023-08-14T11:12:09.437Z,33.99
2023-08-14T11:14:39.088Z,33.78
2023-08-14T11:17:09.668Z,34.12
2023-08-14T11:19:38.484Z,33.67
2023-08-14T11:22:06.970Z,32.85
2023-08-14T11:24:35.064Z,32.63
2023-08-14T11:27:03.701Z,32.85
2023-08-14T11:29:33.149Z,32.43
2023-08-14T11:32:02.135Z,32.41
2023-08-14T11:34:33.640Z,32.26
2023-08-14T11:39:34.150Z,32.81
2023-08-14T11:42:04.826Z,31.96
2023-08-14T11:44:34.966Z,32.04
2023-08-14T11:47:04.104Z,32.01
2023-08-14T11:49:33.610Z,32.19
2023-08-14T11:52:04.344Z,32.53
2023-08-14T11:54:32.930Z,32.55
2023-08-14T11:57:03.499Z,32.46
2023-08-14T11:59:31.661Z,32.18
2023-08-14T12:02:00.006Z,31.57
2023-08-14T12:04:27.965Z,32.33
2023-08-14T12:06:57.548Z,32.30
2023-08-14T12:09:27.744Z,32.49
2023-08-14T12:11:55.778Z,32.58
2023-08-14T12:14:23.683Z,32.19
2023-08-14T12:16:51.716Z,32.35
2023-08-14T12:19:22.316Z,32.73
2023-08-14T12:22:00.226Z,33.19
2023-08-14T12:24:28.290Z,32.90
2023-08-14T12:26:56.230Z,33.06
2023-08-14T12:29:24.478Z,32.71
2023-08-14T12:31:52.654Z,32.58
2023-08-14T12:34:22.588Z,32.86
2023-08-14T12:36:50.642Z,33.09
2023-08-14T12:39:19.938Z,33.51
2023-08-14T12:41:47.884Z,32.90
2023-08-14T12:44:16.038Z,33.41
2023-08-14T12:46:44.189Z,32.95
2023-08-14T12:49:12.234Z,31.95
2023-08-14T12:51:42.453Z,32.38
2023-08-14T12:54:12.008Z,32.43
2023-08-14T12:56:42.929Z,31.42
2023-08-14T12:59:12.523Z,31.72
2023-08-14T13:01:47.221Z,31.89
2023-08-14T13:04:15.942Z,31.63
2023-08-14T13:06:43.981Z,32.38
2023-08-14T13:09:13.767Z,32.05
2023-08-14T13:11:43.086Z,32.21
2023-08-14T13:14:10.979Z,31.57
2023-08-14T13:16:39.018Z,32.08
2023-08-14T13:19:07.027Z,32.28
2023-08-14T13:21:35.056Z,32.98
2023-08-14T13:24:03.067Z,33.23
2023-08-14T13:26:34.029Z,32.88
2023-08-14T13:29:05.118Z,32.93
2023-08-14T13:31:33.811Z,32.88
2023-08-14T13:34:01.759Z,33.78
2023-08-14T13:36:29.800Z,34.33
2023-08-14T13:38:58.326Z,34.15
2023-08-14T13:41:26.282Z,34.07
2023-08-14T13:43:54.894Z,33.36
2023-08-14T13:46:24.501Z,33.53
2023-08-14T13:48:52.522Z,33.64
2023-08-14T13:51:20.488Z,33.91
2023-08-14T13:53:50.669Z,33.54
2023-08-14T13:56:18.589Z,33.47
2023-08-14T13:58:46.619Z,33.33
2023-08-14T14:01:14.722Z,32.95
2023-08-14T14:03:44.057Z,32.89
2023-08-14T14:06:12.026Z,32.45
2023-08-14T14:08:40.108Z,32.04
2023-08-14T14:11:08.102Z,31.52
2023-08-14T14:13:36.047Z,31.58
2023-08-14T14:16:04.564Z,31.98
2023-08-14T14:18:32.520Z,31.70
2023-08-14T14:21:01.785Z,31.76
2023-08-14T14:23:29.769Z,32.04
2023-08-14T14:25:57.774Z,31.82
2023-08-14T14:28:27.397Z,31.67
2023-08-14T14:30:56.772Z,31.87
2023-08-14T14:33:24.692Z,31.38
2023-08-14T14:35:52.667Z,31.38
2023-08-14T14:38:21.888Z,31.36
2023-08-14T14:40:50.051Z,31.02
2023-08-14T14:43:17.972Z,31.09
2023-08-14T14:45:45.831Z,31.03
2023-08-14T14:48:13.721Z,31.02
2023-08-14T14:50:41.556Z,30.79
2023-08-14T14:53:09.474Z,30.79
2023-08-14T14:55:38.712Z,30.54
2023-08-14T14:58:06.679Z,30.31
2023-08-14T15:00:34.561Z,30.14
2023-08-14T15:03:02.756Z,29.98
2023-08-14T15:05:31.865Z,30.15
2023-08-14T15:07:59.700Z,30.13
2023-08-14T15:10:27.696Z,29.90
2023-08-14T15:12:59.234Z,29.81
2023-08-14T15:15:27.171Z,29.79
2023-08-14T15:17:55.119Z,29.83
2023-08-14T15:20:23.026Z,29.73
2023-08-14T15:22:51.008Z,29.67
2023-08-14T15:25:19.103Z,29.63
2023-08-14T15:27:46.942Z,29.73
2023-08-14T15:30:17.671Z,29.57
2023-08-14T15:32:45.637Z,29.45
2023-08-14T15:35:16.150Z,29.49
2023-08-14T15:37:45.011Z,29.36
2023-08-14T15:40:13.967Z,29.31
2023-08-14T15:42:41.870Z,29.21
2023-08-14T15:45:12.722Z,29.10
2023-08-14T15:47:43.711Z,29.10
2023-08-14T15:50:11.881Z,29.13
2023-08-14T15:52:39.833Z,28.98
2023-08-14T15:55:08.938Z,29.04
2023-08-14T15:57:37.114Z,28.93
2023-08-14T16:00:07.646Z,28.88
2023-08-14T16:02:36.141Z,28.86
2023-08-14T16:05:06.228Z,28.73
2023-08-14T16:07:34.185Z,28.69
2023-08-14T16:10:02.005Z,28.65
2023-08-14T16:12:30.057Z,28.56
2023-08-14T16:15:00.394Z,28.58
2023-08-14T16:17:28.775Z,28.43
2023-08-14T16:19:57.095Z,28.48
2023-08-14T16:22:26.486Z,28.41
2023-08-14T16:24:54.467Z,28.40
2023-08-14T16:27:22.671Z,28.34
2023-08-14T16:29:50.718Z,28.42
2023-08-14T16:32:18.606Z,28.34
2023-08-14T16:34:48.523Z,28.24
2023-08-14T16:37:18.995Z,28.32
2023-08-14T16:39:48.687Z,28.26
2023-08-14T16:42:16.597Z,28.31
2023-08-14T16:44:45.761Z,28.30
2023-08-14T16:47:13.847Z,28.43
2023-08-14T16:49:41.836Z,28.41
2023-08-14T16:52:09.719Z,28.48
2023-08-14T16:54:37.686Z,28.72
2023-08-14T16:57:07.976Z,28.59
2023-08-14T16:59:35.915Z,28.79
2023-08-14T17:02:05.154Z,28.72
2023-08-14T17:04:33.179Z,28.71
2023-08-14T17:07:03.070Z,28.58
2023-08-14T17:09:31.027Z,28.61
2023-08-14T17:11:58.907Z,28.63
2023-08-14T17:14:28.115Z,28.41
2023-08-14T17:16:56.204Z,28.39
2023-08-14T17:19:25.562Z,28.35
2023-08-14T17:21:53.607Z,28.18
2023-08-14T17:24:21.849Z,28.05
2023-08-14T17:26:49.813Z,27.83
2023-08-14T17:29:17.707Z,27.86
2023-08-14T17:31:47.013Z,27.40
2023-08-14T17:34:15.463Z,27.29
2023-08-14T17:36:43.390Z,27.10
2023-08-14T17:39:11.726Z,26.99
2023-08-14T17:41:39.586Z,26.89
2023-08-14T17:44:07.439Z,27.00
2023-08-14T17:46:35.361Z,26.86
2023-08-14T17:49:05.024Z,26.80
2023-08-14T17:51:32.949Z,26.64
2023-08-14T17:54:00.949Z,26.59
2023-08-14T17:56:28.815Z,26.41
2023-08-14T17:58:56.656Z,26.28
2023-08-14T18:01:24.748Z,26.18
2023-08-14T18:03:52.824Z,26.14
2023-08-14T18:06:22.112Z,26.14
2023-08-14T18:08:50.122Z,25.91
2023-08-14T18:11:20.602Z,25.92
2023-08-14T18:13:48.740Z,25.72
2023-08-14T18:16:16.839Z,25.39
2023-08-14T18:18:44.801Z,25.23
2023-08-14T18:21:14.620Z,25.07
2023-08-14T18:23:48.944Z,24.88
2023-08-14T18:26:17.049Z,24.74
2023-08-14T18:28:45.978Z,24.75
2023-08-14T18:31:13.979Z,24.70
2023-08-14T18:33:41.933Z,24.72
2023-08-14T18:36:09.828Z,24.56
2023-08-14T18:38:37.707Z,24.62
2023-08-14T18:41:06.945Z,24.42
2023-08-14T18:43:34.788Z,24.34
2023-08-14T18:46:02.812Z,24.43
2023-08-14T18:48:30.825Z,24.37
2023-08-14T18:50:58.614Z,24.28
2023-08-14T18:53:26.938Z,24.31
2023-08-14T18:55:54.926Z,24.24
2023-08-14T18:58:25.244Z,24.29
2023-08-14T19:00:53.205Z,24.15
2023-08-14T19:03:21.285Z,24.13
2023-08-14T19:05:49.163Z,24.15
2023-08-14T19:08:17.124Z,24.08
2023-08-14T19:10:46.356Z,24.10
2023-08-14T19:13:14.198Z,24.14
2023-08-14T19:15:48.331Z,24.24
2023-08-14T19:18:16.274Z,24.19
2023-08-14T19:20:45.285Z,24.09
2023-08-14T19:23:13.878Z,23.99
2023-08-14T19:25:41.747Z,23.84
2023-08-14T19:28:20.758Z,23.80
2023-08-14T19:30:51.047Z,23.73
2023-08-14T19:33:19.154Z,23.49
2023-08-14T19:35:47.134Z,23.56
2023-08-14T19:38:15.904Z,23.50
2023-08-14T19:40:43.734Z,23.41
2023-08-14T19:43:11.633Z,23.47
2023-08-14T19:45:39.606Z,23.47
2023-08-14T19:48:09.108Z,23.38
2023-08-14T19:50:37.095Z,23.30
2023-08-14T19:53:05.355Z,23.30
2023-08-14T19:55:33.316Z,23.25
2023-08-14T19:58:01.231Z,23.16
2023-08-14T20:00:29.193Z,23.18
2023-08-14T20:02:57.433Z,23.09
2023-08-14T20:05:26.668Z,23.09
2023-08-14T20:07:54.690Z,23.24
2023-08-14T20:10:22.579Z,23.30
2023-08-14T20:12:50.620Z,23.26
2023-08-14T20:15:18.630Z,23.34
2023-08-14T20:17:48.213Z,23.33
2023-08-14T20:20:18.507Z,23.30
2023-08-14T20:22:47.826Z,23.17
2023-08-14T20:25:15.828Z,23.10
2023-08-14T20:27:43.753Z,23.11
2023-08-14T20:30:12.894Z,23.10
2023-08-14T20:32:40.883Z,22.98
2023-08-14T20:35:09.601Z,22.92
2023-08-14T20:37:37.594Z,22.94
2023-08-14T20:40:10.009Z,23.00
2023-08-14T20:42:37.877Z,23.02
2023-08-14T20:45:07.144Z,23.09
2023-08-14T20:47:35.949Z,23.08
2023-08-14T20:50:03.962Z,23.02
2023-08-14T20:52:31.914Z,23.03
2023-08-14T20:55:00.532Z,23.00
2023-08-14T20:57:30.194Z,23.03
2023-08-14T20:59:58.384Z,23.06
2023-08-14T21:02:26.429Z,23.04
2023-08-14T21:04:54.301Z,22.97
2023-08-14T21:07:22.372Z,22.95
2023-08-14T21:09:51.757Z,22.96
2023-08-14T21:12:19.682Z,22.98
2023-08-14T21:14:49.023Z,22.96
2023-08-14T21:17:16.885Z,23.05
2023-08-14T21:19:44.812Z,23.22
2023-08-14T21:22:12.827Z,23.11
2023-08-14T21:24:40.779Z,23.14
2023-08-14T21:27:08.721Z,23.19
2023-08-14T21:29:36.678Z,23.11
2023-08-14T21:32:06.873Z,23.13
2023-08-14T21:34:36.697Z,23.12
2023-08-14T21:37:05.289Z,23.08
2023-08-14T21:39:33.158Z,23.10
2023-08-14T21:42:01.035Z,23.10
2023-08-14T21:44:28.938Z,23.13
2023-08-14T21:46:56.854Z,23.12
2023-08-14T21:49:26.373Z,23.08
2023-08-14T21:51:54.309Z,23.09
2023-08-14T21:54:22.404Z,23.00
2023-08-14T21:56:50.397Z,22.90
2023-08-14T21:59:18.349Z,22.92
2023-08-14T22:01:47.746Z,22.91
2023-08-14T22:04:15.961Z,22.92
2023-08-14T22:06:45.371Z,22.95
2023-08-14T22:09:13.482Z,22.98
2023-08-14T22:11:41.455Z,22.98
2023-08-14T22:14:09.509Z,22.95
2023-08-14T22:16:37.615Z,23.06
2023-08-14T22:19:05.921Z,22.93
2023-08-14T22:21:33.909Z,22.84
2023-08-14T22:24:03.139Z,22.77
2023-08-14T22:26:31.407Z,22.66
2023-08-14T22:28:59.433Z,22.66
2023-08-14T22:31:27.475Z,22.68
2023-08-14T22:33:55.546Z,22.69
2023-08-14T22:36:23.482Z,22.65
2023-08-14T22:38:51.616Z,22.75
2023-08-14T22:41:20.950Z,22.69
2023-08-14T22:43:48.848Z,22.71
2023-08-14T22:46:16.951Z,22.75
2023-08-14T22:48:44.847Z,22.66
2023-08-14T22:51:13.582Z,22.71
2023-08-14T22:53:42.337Z,22.71
2023-08-14T22:56:10.414Z,22.82
2023-08-14T22:58:40.889Z,23.18
2023-08-14T23:01:08.871Z,22.85
2023-08-14T23:03:37.035Z,22.77
2023-08-14T23:06:05.101Z,22.78
2023-08-14T23:08:32.954Z,22.70
2023-08-14T23:11:00.856Z,22.82
2023-08-14T23:13:28.787Z,22.77
2023-08-14T23:15:58.143Z,22.91
2023-08-14T23:18:26.073Z,23.01
2023-08-14T23:20:53.905Z,23.06
2023-08-14T23:23:21.821Z,23.00
2023-08-14T23:25:49.778Z,22.94
2023-08-14T23:28:17.776Z,22.52
2023-08-14T23:30:45.692Z,21.38
2023-08-14T23:33:14.930Z,20.67
2023-08-14T23:35:42.871Z,20.62
2023-08-14T23:38:10.813Z,20.51
2023-08-14T23:40:38.849Z,20.46
2023-08-14T23:43:06.715Z,20.36
2023-08-14T23:45:34.697Z,20.34
2023-08-14T23:48:03.806Z,20.27
2023-08-14T23:50:33.356Z,20.27
2023-08-14T23:53:01.373Z,20.20
2023-08-14T23:55:29.304Z,20.21
2023-08-14T23:57:57.295Z,20.20
